Terminal Aerodrome Forecast
Issued by NWS

Home | Current Version | Previous Version | Graphics & Text | Print | Product List | Glossary On
Versions: 1 2 3 4 5 6 7 8 9 10 11 12 13
000
FTUS43 KICT 200500
TAFSLN
TAF
KSLN 200520Z 2006/2106 16009KT P6SM SCT070
     FM201000 17011KT 6SM BR FEW009 SCT015
     FM201500 17015G23KT P6SM SCT050
     FM210200 17010KT P6SM FEW250=

USA.gov is the U.S. government's official web portal to all federal, state and local government web resources and services.